FCS weather

Butts AAF (Fort Carson) Air Field
Fort Carson, Colorado, United States

Public forecast

Using degrees Fahrenheit for public forecast. Weather courtesy of forecast.io.

Current aviation weather report (METAR) for Butts AAF (Fort Carson) Air Field

Retrieved 2019/10/14 00:58 UTC (56 minutes ago):

KFCS 140058Z AUTO 25004KT 10SM CLR 14/M19 A3001 RMK AO2 SLP170 T01361187

Aviation forecast (TAF) for Butts AAF (Fort Carson) Air Field

Retrieved 2019/10/13 21:12 UTC (5 hours ago):

TAF TAF KFCS 132110Z 1321/1503 13010G15KT 9999 SKC QNH2995INS BECMG 1401/1402 17009KT 9999 SCT250 SCT300 QNH2997INS BECMG 1417/1418 24010G15KT 9999 FEW150 QNH2993INS BECMG 1420/1421 26012G18KT 9999 FEW100 SCT150 QNH2992INS BECMG 1500/1501 30009KT 9999 FEW110 SCT150 SCT220 QNH2995INS TX25/1421Z TN03/1412Z